Time;durP1;ratioP1;P1;durP2;ratioP2;P2;SDS_P1;SDS_P2;PMS_P1;PMS_P2;Temp;Humidity;BMP_temperature;BMP_pressure;BME280_temperature;BME280_humidity;BME280_pressure;Samples;Min_cycle;Max_cycle;Signal;HPM_P1;HPM_P2
2021/12/14 00:02:15;;;;;;;102.47;48.20;;;;;;;6.65;95.05;101274.91;2884711;82;21037;-68
2021/12/14 00:06:19;;;;;;;90.85;47.00;;;;;;;6.61;95.41;101271.20;2885034;82;21029;-68
2021/12/14 00:18:44;;;;;;;45.92;27.80;;;;;;;6.73;95.11;101282.95;2884639;82;21018;-68
2021/12/14 00:27:05;;;;;;;61.13;39.78;;;;;;;6.95;94.87;101287.55;2884705;82;21010;-68
2021/12/14 00:31:13;;;;;;;72.95;43.65;;;;;;;6.99;94.51;101283.81;2884545;82;21010;-69
2021/12/14 00:35:15;;;;;;;157.30;84.40;;;;;;;7.04;94.30;101284.91;2885265;82;21070;-69
2021/12/14 00:39:17;;;;;;;112.15;64.82;;;;;;;7.05;94.28;101284.42;2885782;81;21018;-69
2021/12/14 00:43:20;;;;;;;59.40;34.00;;;;;;;7.07;93.91;101282.55;2885352;82;21586;-68
2021/12/14 00:47:22;;;;;;;56.42;35.52;;;;;;;6.94;93.54;101285.84;2885405;82;21041;-69
2021/12/14 00:51:28;;;;;;;85.50;51.35;;;;;;;6.90;93.59;101287.39;2885780;82;21022;-69
2021/12/14 00:55:35;;;;;;;102.17;53.40;;;;;;;6.82;93.80;101289.09;2880164;82;21038;-69
2021/12/14 00:59:37;;;;;;;75.97;45.78;;;;;;;6.85;94.09;101290.25;2877070;82;21078;-69
2021/12/14 01:03:44;;;;;;;144.43;77.05;;;;;;;6.92;94.39;101293.45;2876086;82;21058;-70
2021/12/14 01:07:46;;;;;;;101.45;57.15;;;;;;;6.95;94.01;101295.48;2876718;82;21018;-69
2021/12/14 01:11:50;;;;;;;100.25;54.83;;;;;;;7.04;93.84;101297.27;2876161;82;21041;-69
2021/12/14 01:16:14;;;;;;;72.92;41.18;;;;;;;7.09;93.64;101295.27;2876643;82;21034;-69
2021/12/14 01:20:10;;;;;;;59.03;34.95;;;;;;;7.14;93.71;101290.58;2873837;82;21541;-67
2021/12/14 01:24:34;;;;;;;60.40;35.60;;;;;;;7.35;94.03;101293.05;2877166;82;21009;-69
2021/12/14 01:28:28;;;;;;;63.35;40.60;;;;;;;7.38;92.97;101285.81;2875948;82;21022;-68
2021/12/14 01:32:33;;;;;;;61.23;37.60;;;;;;;7.38;92.66;101284.95;2876469;82;20999;-69
2021/12/14 01:36:42;;;;;;;75.87;43.13;;;;;;;7.40;92.88;101281.75;2876347;82;21057;-68
2021/12/14 01:40:58;;;;;;;70.60;42.65;;;;;;;7.50;92.67;101279.47;2875173;82;21038;-69
2021/12/14 01:45:21;;;;;;;91.75;47.62;;;;;;;7.57;92.72;101276.41;2876645;82;21495;-69
2021/12/14 01:49:27;;;;;;;71.57;40.10;;;;;;;7.64;92.15;101282.70;2876308;82;20971;-69
2021/12/14 01:53:29;;;;;;;73.30;42.40;;;;;;;7.67;92.06;101283.88;2876657;82;20983;-69
2021/12/14 01:57:33;;;;;;;59.40;38.88;;;;;;;7.70;92.19;101285.88;2873690;83;20971;-69
2021/12/14 02:01:46;;;;;;;68.17;38.58;;;;;;;7.83;92.29;101278.60;2873782;82;21018;-69
2021/12/14 02:05:43;;;;;;;;;;;;;;;7.91;92.07;101280.34;2874806;83;21030;-70
2021/12/14 02:09:49;;;;;;;51.45;35.17;;;;;;;7.97;91.68;101279.16;2873989;82;20097;-69
2021/12/14 02:13:55;;;;;;;63.98;36.77;;;;;;;7.98;91.38;101280.87;2844868;83;20987;-69
2021/12/14 02:18:00;;;;;;;57.60;32.75;;;;;;;8.04;91.33;101288.47;2873390;83;21061;-69
2021/12/14 02:22:05;;;;;;;52.27;31.75;;;;;;;8.08;91.05;101289.17;2873621;83;21074;-69
2021/12/14 02:26:12;;;;;;;49.60;35.48;;;;;;;8.10;90.81;101281.53;2873641;83;21014;-70
2021/12/14 02:30:18;;;;;;;56.08;31.05;;;;;;;8.19;90.60;101285.92;2873929;82;21018;-70
2021/12/14 02:34:21;;;;;;;39.80;26.48;;;;;;;8.13;89.91;101285.33;2873617;82;20990;-70
2021/12/14 02:38:23;;;;;;;46.13;20.70;;;;;;;8.01;90.61;101287.32;2873930;82;21038;-69
2021/12/14 02:42:26;;;;;;;30.88;19.45;;;;;;;8.06;92.13;101280.45;2873405;82;21011;-70
2021/12/14 02:46:36;;;;;;;30.55;17.80;;;;;;;7.81;93.18;101283.97;2874295;82;21077;-70
2021/12/14 02:50:40;;;;;;;26.93;16.17;;;;;;;7.69;95.18;101275.38;2874049;82;21014;-70
2021/12/14 02:54:47;;;;;;;26.45;15.28;;;;;;;7.58;96.40;101277.28;2874318;82;21039;-70
2021/12/14 02:58:54;;;;;;;23.15;14.68;;;;;;;7.54;97.01;101279.23;2874120;82;21015;-69
2021/12/14 03:02:57;;;;;;;25.97;14.87;;;;;;;7.40;98.50;101281.75;2873907;83;21003;-70
2021/12/14 03:07:01;;;;;;;19.52;13.43;;;;;;;7.34;99.93;101281.59;2873702;83;21014;-70
2021/12/14 03:11:12;;;;;;;24.47;13.22;;;;;;;7.42;99.67;101274.58;2873120;83;21038;-70
2021/12/14 03:15:22;;;;;;;19.37;11.57;;;;;;;7.43;99.83;101269.21;2873824;83;21057;-70
2021/12/14 03:19:24;;;;;;;17.45;10.65;;;;;;;7.41;99.82;101270.22;2873477;82;20974;-70
2021/12/14 03:23:34;;;;;;;20.25;11.93;;;;;;;7.49;99.60;101274.66;2873139;82;21018;-70
2021/12/14 03:27:42;;;;;;;38.60;12.25;;;;;;;7.50;99.98;101279.02;2873005;83;21026;-70
2021/12/14 03:31:48;;;;;;;23.77;14.73;;;;;;;7.54;100.00;101276.58;2848467;83;21074;-70
2021/12/14 03:36:09;;;;;;;20.10;12.37;;;;;;;7.60;100.00;101270.56;2874016;83;21033;-70
2021/12/14 03:40:12;;;;;;;20.45;12.00;;;;;;;7.67;99.94;101269.31;2873554;82;21069;-70
2021/12/14 03:44:21;;;;;;;24.52;12.90;;;;;;;7.79;98.18;101268.63;2873450;82;21010;-69
2021/12/14 03:48:27;;;;;;;22.75;12.45;;;;;;;7.82;97.21;101264.48;2873751;83;20978;-69
2021/12/14 03:52:34;;;;;;;21.00;10.70;;;;;;;7.88;96.95;101254.52;2873887;82;21477;-69
2021/12/14 03:56:37;;;;;;;19.80;10.10;;;;;;;7.80;96.57;101254.45;2873568;81;21381;-69
2021/12/14 04:00:44;;;;;;;21.93;14.03;;;;;;;7.74;96.95;101252.14;2873667;83;21078;-69
2021/12/14 04:05:03;;;;;;;23.65;15.70;;;;;;;7.75;97.36;101247.23;2873828;82;21057;-68
2021/12/14 04:09:02;;;;;;;27.30;13.32;;;;;;;7.80;97.01;101250.47;2872678;83;20998;-67
2021/12/14 04:13:05;;;;;;;26.97;15.55;;;;;;;7.89;96.41;101246.95;2873363;82;21055;-68
2021/12/14 04:17:08;;;;;;;27.30;15.28;;;;;;;8.00;96.37;101251.17;2874023;83;21002;-68
2021/12/14 04:21:10;;;;;;;31.07;14.73;;;;;;;7.89;95.80;101249.60;2873739;83;21026;-69
2021/12/14 04:25:12;;;;;;;17.02;11.75;;;;;;;7.83;96.58;101243.68;2873353;82;21033;-69
2021/12/14 04:29:15;;;;;;;19.67;12.10;;;;;;;7.72;98.21;101236.32;2873604;82;21026;-69
2021/12/14 04:33:25;;;;;;;11.50;9.95;;;;;;;7.71;99.68;101236.42;2869536;82;21053;-69
2021/12/14 04:37:26;;;;;;;16.55;10.40;;;;;;;7.72;99.15;101231.52;2869861;83;20943;-69
2021/12/14 04:54:44;;;;;;;15.85;10.38;;;;;;;8.31;98.81;101225.59;2820569;83;21078;-69
2021/12/14 04:58:57;;;;;;;14.38;11.57;;;;;;;8.46;96.45;101229.64;2868752;83;21011;-69
2021/12/14 05:03:02;;;;;;;10.35;8.80;;;;;;;8.47;94.41;101227.37;2867795;83;21026;-70
2021/12/14 05:07:28;;;;;;;12.37;9.85;;;;;;;8.51;94.16;101224.95;2868748;82;21066;-69
2021/12/14 05:11:14;;;;;;;12.58;9.40;;;;;;;8.52;94.10;101224.00;2864629;83;21038;-68
2021/12/14 05:15:17;;;;;;;16.65;9.58;;;;;;;8.59;94.30;101224.02;2868660;83;21367;-69
2021/12/14 05:19:24;;;;;;;10.08;8.80;;;;;;;8.67;92.92;101223.11;2868404;83;21038;-68
2021/12/14 05:23:30;;;;;;;12.03;8.73;;;;;;;8.62;92.56;101223.83;2868253;83;21014;-70
2021/12/14 05:27:42;;;;;;;;;;;;;;;8.57;91.54;101222.80;2871503;83;20999;-71
2021/12/14 05:31:48;;;;;;;11.48;8.85;;;;;;;8.36;90.21;101214.25;2868806;82;20167;-70
2021/12/14 05:35:53;;;;;;;12.23;9.40;;;;;;;8.14;91.75;101215.94;2868600;83;21085;-73
2021/12/14 05:40:01;;;;;;;11.05;8.28;;;;;;;8.02;92.37;101217.48;2869090;82;20991;-71
2021/12/14 05:44:01;;;;;;;11.20;7.62;;;;;;;7.94;93.42;101213.10;2868448;83;21042;-70
2021/12/14 05:48:06;;;;;;;15.50;7.90;;;;;;;7.91;94.15;101205.33;2868877;83;21015;-70
2021/12/14 05:52:12;;;;;;;11.97;8.48;;;;;;;7.76;94.30;101205.23;2868529;83;21011;-71
2021/12/14 05:56:19;;;;;;;17.77;9.73;;;;;;;7.65;94.91;101207.61;2855302;83;21094;-70
2021/12/14 06:00:23;;;;;;;11.35;8.20;;;;;;;7.46;96.02;101204.64;2841517;83;20999;-69
2021/12/14 06:04:34;;;;;;;13.53;8.08;;;;;;;7.30;96.64;101199.33;2841442;83;21026;-70
2021/12/14 06:08:36;;;;;;;12.78;9.10;;;;;;;7.24;97.88;101193.88;2841687;83;21022;-71
2021/12/14 06:12:39;;;;;;;22.32;10.03;;;;;;;7.28;98.11;101198.10;2841831;83;21022;-72
2021/12/14 06:16:41;;;;;;;16.73;10.53;;;;;;;7.32;98.50;101205.88;2841408;83;21011;-71
2021/12/14 06:20:44;;;;;;;28.10;14.10;;;;;;;7.38;97.84;101201.11;2841826;83;21031;-70
2021/12/14 06:24:51;;;;;;;59.67;29.50;;;;;;;7.48;96.93;101208.54;2841745;84;21490;-70
2021/12/14 06:28:52;;;;;;;138.97;66.50;;;;;;;7.52;96.42;101206.98;2841660;83;20987;-70
2021/12/14 06:33:05;;;;;;;108.47;47.65;;;;;;;7.57;96.24;101210.22;2828157;83;21042;-71
2021/12/14 06:41:39;;;;;;;39.23;22.77;;;;;;;7.65;96.90;101203.19;2841838;83;20975;-71
2021/12/14 06:46:02;;;;;;;17.45;12.55;;;;;;;7.62;95.74;101191.89;2842354;83;21026;-70
2021/12/14 06:50:12;;;;;;;17.70;10.08;;;;;;;7.52;95.89;101183.14;2842519;83;21554;-71
2021/12/14 06:54:24;;;;;;;18.95;10.55;;;;;;;7.45;95.79;101189.69;2839678;83;21018;-71
2021/12/14 06:58:31;;;;;;;17.25;12.40;;;;;;;7.29;96.40;101185.70;2829608;83;21031;-71
2021/12/14 07:02:33;;;;;;;15.95;12.40;;;;;;;7.18;97.08;101191.58;2828925;83;21059;-71
2021/12/14 07:06:42;;;;;;;56.45;43.58;;;;;;;7.12;97.33;101190.59;2828643;83;21034;-70
2021/12/14 07:10:44;;;;;;;144.43;107.63;;;;;;;7.12;97.51;101186.13;2828512;83;20956;-72
2021/12/14 07:15:02;;;;;;;147.50;102.12;;;;;;;7.20;97.36;101178.28;2828784;83;21094;-70
2021/12/14 07:19:07;;;;;;;99.07;69.65;;;;;;;7.28;97.19;101180.03;2828798;83;21010;-71
2021/12/14 07:23:28;;;;;;;88.10;48.63;;;;;;;7.35;96.64;101181.88;2828770;83;20999;-70
2021/12/14 07:27:32;;;;;;;89.65;47.98;;;;;;;7.49;97.37;101180.67;2828569;84;20987;-71
2021/12/14 07:31:40;;;;;;;141.57;67.95;;;;;;;7.51;96.53;101190.70;2828769;83;20951;-70
2021/12/14 07:35:50;;;;;;;110.15;56.42;;;;;;;7.62;97.02;101191.89;2829028;83;21031;-70
2021/12/14 07:39:52;;;;;;;59.93;36.45;;;;;;;7.75;95.64;101199.55;2828579;83;20972;-71
2021/12/14 07:44:14;;;;;;;58.60;32.67;;;;;;;7.80;95.11;101209.91;2825851;82;21035;-70
2021/12/14 07:48:16;;;;;;;73.65;38.60;;;;;;;7.88;95.53;101206.83;2824301;84;21003;-70
2021/12/14 07:52:25;;;;;;;59.63;31.87;;;;;;;8.06;95.12;101219.50;2824621;83;20995;-70
2021/12/14 07:56:35;;;;;;;65.00;37.50;;;;;;;8.13;94.03;101219.53;2840599;83;20983;-70
2021/12/14 08:00:40;;;;;;;54.83;31.07;;;;;;;8.13;93.21;101219.08;2851576;83;21099;-71
2021/12/14 08:04:56;;;;;;;23.43;14.87;;;;;;;8.28;94.47;101225.77;2869241;83;21006;-71
2021/12/14 08:08:58;;;;;;;19.55;13.83;;;;;;;8.24;93.17;101221.56;2869005;83;21038;-70
2021/12/14 08:13:08;;;;;;;20.62;14.55;;;;;;;8.12;93.23;101221.34;2868725;83;20990;-71
2021/12/14 08:17:10;;;;;;;17.07;13.30;;;;;;;8.07;94.07;101220.75;2868973;83;21027;-70
2021/12/14 08:21:20;;;;;;;19.45;13.00;;;;;;;8.07;94.40;101218.11;2868950;83;20986;-71
2021/12/14 08:25:29;;;;;;;22.17;13.72;;;;;;;8.06;94.68;101216.85;2868475;83;20979;-72
2021/12/14 08:29:35;;;;;;;21.15;14.80;;;;;;;8.08;94.63;101215.84;2869145;83;21018;-70
2021/12/14 08:33:37;;;;;;;;;;;;;;;8.13;94.37;101206.28;2871856;83;20967;-71
2021/12/14 08:37:43;;;;;;;17.95;14.20;;;;;;;8.17;94.10;101213.59;2869065;83;20140;-72
2021/12/14 08:41:55;;;;;;;21.12;13.22;;;;;;;8.19;94.02;101216.55;2844792;83;21063;-70
2021/12/14 08:46:00;;;;;;;27.17;15.15;;;;;;;8.24;93.77;101209.64;2868225;83;21034;-71
2021/12/14 08:50:07;;;;;;;22.20;15.65;;;;;;;8.29;94.10;101214.23;2869434;83;20990;-71
2021/12/14 08:54:17;;;;;;;22.55;13.48;;;;;;;8.36;93.61;101211.59;2868459;83;21042;-72
2021/12/14 08:58:19;;;;;;;19.12;14.20;;;;;;;8.38;93.52;101201.75;2835213;83;21041;-72
2021/12/14 09:02:24;;;;;;;19.17;13.53;;;;;;;8.45;93.82;101204.91;2826456;82;21059;-72
2021/12/14 09:06:31;;;;;;;14.85;11.93;;;;;;;8.54;93.38;101209.69;2825060;83;21031;-70
2021/12/14 09:10:34;;;;;;;;;;;;;;;8.60;92.99;101203.18;2827056;83;21062;-70
2021/12/14 09:14:36;;;;;;;20.85;12.25;;;;;;;8.64;92.57;101211.33;2774988;86;20482;-70
2021/12/14 09:18:43;;;;;;;15.48;12.65;;;;;;;8.69;92.58;101212.39;2824651;83;21078;-71
2021/12/14 09:22:51;;;;;;;17.70;13.28;;;;;;;8.67;92.30;101207.66;2824545;84;21030;-73
2021/12/14 09:26:57;;;;;;;17.67;11.35;;;;;;;8.64;92.13;101210.00;2824294;83;20999;-71
2021/12/14 09:31:04;;;;;;;13.18;10.53;;;;;;;8.69;92.14;101220.34;2824961;83;21066;-70
2021/12/14 09:35:13;;;;;;;14.93;10.20;;;;;;;8.66;92.04;101201.97;2824375;83;20983;-73
2021/12/14 09:39:23;;;;;;;14.93;10.08;;;;;;;8.64;91.80;101207.35;2824672;83;21054;-70
2021/12/14 09:43:25;;;;;;;14.75;9.50;;;;;;;8.63;91.83;101212.77;2823625;83;20968;-71
2021/12/14 09:47:31;;;;;;;14.55;11.22;;;;;;;8.57;92.07;101221.92;2824775;84;21026;-70
2021/12/14 09:51:41;;;;;;;13.68;12.33;;;;;;;8.54;92.25;101207.03;2824927;83;21082;-71
2021/12/14 09:55:45;;;;;;;21.02;12.43;;;;;;;8.53;92.51;101207.14;2826922;83;21494;-72
2021/12/14 09:59:48;;;;;;;15.90;10.63;;;;;;;8.58;92.57;101213.03;2869075;83;21019;-71
2021/12/14 10:03:53;;;;;;;18.02;13.43;;;;;;;8.61;92.45;101201.39;2869162;83;21031;-71
2021/12/14 10:07:57;;;;;;;19.55;12.65;;;;;;;8.65;92.38;101207.77;2869735;83;21026;-72
2021/12/14 10:12:18;;;;;;;15.55;12.35;;;;;;;8.65;92.33;101206.89;2869196;83;20991;-72
2021/12/14 10:16:09;;;;;;;22.25;14.45;;;;;;;8.69;92.38;101209.28;2866560;83;20983;-71
2021/12/14 10:20:16;;;;;;;16.10;11.15;;;;;;;8.64;92.20;101206.02;2869395;83;20991;-70
2021/12/14 10:24:19;;;;;;;18.48;13.32;;;;;;;8.62;92.18;101203.10;2869501;83;21026;-71
2021/12/14 10:28:23;;;;;;;21.02;12.63;;;;;;;8.65;92.30;101205.56;2869368;81;21031;-71
2021/12/14 10:32:30;;;;;;;11.20;10.00;;;;;;;8.66;92.37;101201.51;2869167;82;20931;-70
2021/12/14 10:36:38;;;;;;;15.13;11.18;;;;;;;8.67;92.54;101206.33;2868756;83;21026;-71
2021/12/14 10:45:03;;;;;;;16.55;10.55;;;;;;;8.68;93.04;101198.30;2869007;83;21023;-71
2021/12/14 10:49:06;;;;;;;12.10;9.58;;;;;;;8.69;93.02;101195.15;2868776;83;21038;-72
2021/12/14 10:53:11;;;;;;;15.28;9.65;;;;;;;8.69;93.00;101195.15;2869157;83;21610;-71
2021/12/14 10:57:17;;;;;;;11.38;8.53;;;;;;;8.75;92.67;101184.66;2852859;83;21078;-70
2021/12/14 11:01:27;;;;;;;12.25;9.35;;;;;;;8.75;92.34;101182.87;2824501;84;21000;-70
2021/12/14 11:05:30;;;;;;;10.53;7.90;;;;;;;8.66;92.18;101189.58;2824131;83;20991;-70
2021/12/14 11:13:45;;;;;;;11.43;8.90;;;;;;;8.63;92.25;101194.20;2824325;84;21030;-70
2021/12/14 11:22:30;;;;;;;9.60;7.70;;;;;;;8.67;92.07;101183.33;2824950;83;21030;-72
2021/12/14 11:26:35;;;;;;;13.00;8.88;;;;;;;8.74;92.25;101180.30;2824257;83;21381;-71
2021/12/14 11:31:01;;;;;;;11.83;8.83;;;;;;;8.80;92.31;101177.27;2824709;84;20999;-70
2021/12/14 11:35:16;;;;;;;16.93;8.50;;;;;;;8.77;91.75;101176.13;2783372;83;21666;-73
2021/12/14 11:39:24;;;;;;;13.43;8.85;;;;;;;8.81;92.15;101172.34;2824328;84;21078;-71
2021/12/14 11:43:29;;;;;;;15.18;9.65;;;;;;;8.84;92.01;101174.34;2824451;84;21630;-72
2021/12/14 11:47:46;;;;;;;12.30;9.77;;;;;;;8.90;91.95;101171.80;2824687;83;20991;-72
2021/12/14 11:51:48;;;;;;;11.33;8.13;;;;;;;9.06;92.32;101171.70;2797605;84;23658;-70
2021/12/14 11:56:07;;;;;;;8.58;6.42;;;;;;;9.12;92.13;101166.50;2824724;83;21007;-71
2021/12/14 12:00:14;;;;;;;11.45;7.20;;;;;;;9.08;91.71;101174.28;2824551;83;21054;-71
2021/12/14 12:04:23;;;;;;;11.40;7.03;;;;;;;9.11;91.30;101166.13;2824338;83;21074;-70
2021/12/14 12:12:48;;;;;;;9.40;7.70;;;;;;;9.17;91.32;101141.84;2824905;83;21046;-71
2021/12/14 12:16:55;;;;;;;11.18;7.47;;;;;;;9.21;91.04;101140.70;2824937;83;21011;-70
2021/12/14 12:20:57;;;;;;;13.25;8.85;;;;;;;9.31;91.54;101145.44;2824954;84;21011;-72
2021/12/14 12:24:59;;;;;;;15.28;9.18;;;;;;;9.36;91.15;101144.67;2824842;83;21058;-73
2021/12/14 12:29:06;;;;;;;14.33;8.95;;;;;;;9.36;90.59;101149.98;2824434;83;21019;-72
2021/12/14 12:33:30;;;;;;;12.00;7.83;;;;;;;9.33;90.55;101147.52;2824460;84;21074;-73
2021/12/14 12:37:42;;;;;;;11.45;8.20;;;;;;;9.29;90.54;101145.06;2824886;84;21019;-69
2021/12/14 12:41:57;;;;;;;13.72;8.13;;;;;;;9.32;90.52;101139.19;2824192;83;21023;-71
2021/12/14 12:46:06;;;;;;;12.88;7.97;;;;;;;9.29;90.49;101132.25;2824521;83;20999;-70
2021/12/14 12:50:08;;;;;;;10.50;9.00;;;;;;;9.24;89.50;101130.37;2776670;85;21078;-71
2021/12/14 12:54:15;;;;;;;13.88;8.90;;;;;;;9.29;89.80;101126.48;2825215;84;21011;-71
2021/12/14 12:58:17;;;;;;;12.05;8.05;;;;;;;9.25;89.78;101135.59;2825297;83;21003;-70
2021/12/14 13:02:30;;;;;;;11.12;7.75;;;;;;;9.23;90.00;101132.16;2825283;83;21015;-70
2021/12/14 13:06:33;;;;;;;12.05;7.97;;;;;;;9.18;90.13;101141.38;2824882;83;20955;-71
2021/12/14 13:10:42;;;;;;;13.40;9.70;;;;;;;9.14;90.57;101144.69;2824382;84;21050;-71
2021/12/14 13:14:44;;;;;;;11.73;8.15;;;;;;;9.10;90.51;101147.16;2824184;83;21015;-70
2021/12/14 13:19:00;;;;;;;11.78;8.38;;;;;;;9.09;90.45;101141.48;2824686;84;21011;-71
2021/12/14 13:23:02;;;;;;;15.93;9.45;;;;;;;9.08;90.40;101146.41;2824344;83;21006;-70
2021/12/14 13:27:17;;;;;;;11.80;7.42;;;;;;;9.08;90.58;101162.33;2824447;84;20980;-71
2021/12/14 13:31:30;;;;;;;13.28;10.32;;;;;;;9.09;90.18;101160.06;2823941;83;21082;-69
2021/12/14 13:35:35;;;;;;;12.55;10.25;;;;;;;9.06;89.76;101164.23;2824273;83;21051;-70
2021/12/14 13:39:38;;;;;;;15.00;9.45;;;;;;;9.11;90.20;101178.06;2824263;83;21082;-70
2021/12/14 13:43:41;;;;;;;13.30;9.43;;;;;;;9.14;89.90;101181.85;2824176;84;21003;-70
2021/12/14 13:47:44;;;;;;;13.48;10.30;;;;;;;9.10;89.74;101187.81;2824799;84;20991;-71
2021/12/14 13:51:46;;;;;;;12.47;9.25;;;;;;;9.15;89.68;101184.88;2824040;83;21015;-70
2021/12/14 13:55:52;;;;;;;11.75;8.10;;;;;;;9.19;89.61;101179.76;2824681;84;21054;-70
2021/12/14 13:59:54;;;;;;;14.38;8.73;;;;;;;9.18;89.37;101178.55;2848778;82;21090;-67
2021/12/14 14:04:01;;;;;;;10.38;8.15;;;;;;;9.18;89.27;101177.22;2877493;81;21016;-68
2021/12/14 14:08:08;;;;;;;10.25;6.92;;;;;;;9.25;89.25;101172.77;2877690;82;21067;-67
2021/12/14 14:12:16;;;;;;;9.98;8.93;;;;;;;9.30;88.62;101179.09;2877967;82;21035;-67
2021/12/14 14:16:18;;;;;;;9.65;6.78;;;;;;;9.40;88.27;101179.37;2853145;82;21035;-67
2021/12/14 14:20:37;;;;;;;17.23;10.78;;;;;;;9.41;87.41;101175.77;2877821;82;21078;-69
2021/12/14 14:24:46;;;;;;;11.05;8.20;;;;;;;9.46;87.69;101168.84;2878225;82;21063;-68
2021/12/14 14:28:55;;;;;;;9.95;7.85;;;;;;;9.51;87.31;101169.39;2878016;82;21028;-67
2021/12/14 14:33:23;;;;;;;9.73;7.97;;;;;;;9.51;86.65;101166.28;2876308;82;21005;-68
2021/12/14 14:37:35;;;;;;;8.73;6.55;;;;;;;9.45;85.87;101164.48;2877268;82;21026;-66
2021/12/14 14:41:41;;;;;;;10.38;6.92;;;;;;;9.39;86.28;101173.68;2877771;82;21022;-69
2021/12/14 14:45:44;;;;;;;12.82;7.37;;;;;;;9.32;86.27;101171.05;2877278;82;21938;-67
2021/12/14 14:49:56;;;;;;;11.65;8.98;;;;;;;9.22;86.14;101178.23;2877423;82;21381;-70
2021/12/14 14:53:58;;;;;;;10.13;7.33;;;;;;;9.14;86.57;101179.20;2877485;82;21030;-67
2021/12/14 14:58:10;;;;;;;12.78;8.28;;;;;;;9.12;86.81;101189.06;2877647;82;21031;-67
2021/12/14 15:02:12;;;;;;;9.38;8.20;;;;;;;9.08;86.85;101179.09;2869101;82;21058;-69
2021/12/14 15:06:33;;;;;;;12.30;7.58;;;;;;;9.12;86.95;101173.13;2851329;82;21050;-66
2021/12/14 15:10:56;;;;;;;13.20;8.70;;;;;;;9.13;86.60;101179.66;2876691;82;21074;-66
2021/12/14 15:15:03;;;;;;;13.68;10.03;;;;;;;9.16;86.17;101179.11;2876476;82;21018;-67
2021/12/14 15:19:13;;;;;;;12.05;7.35;;;;;;;9.06;85.95;101171.70;2874187;82;21022;-68
2021/12/14 15:23:20;;;;;;;11.05;7.72;;;;;;;8.98;85.90;101181.45;2876164;82;21014;-70
2021/12/14 15:27:35;;;;;;;13.10;9.90;;;;;;;8.91;86.23;101188.09;2850659;82;21042;-71
2021/12/14 15:31:37;;;;;;;10.93;7.67;;;;;;;8.82;86.42;101188.63;2876119;82;21403;-70
2021/12/14 15:35:52;;;;;;;11.63;10.18;;;;;;;8.76;86.42;101191.20;2848455;82;21042;-66
2021/12/14 15:39:50;;;;;;;17.42;9.65;;;;;;;8.70;86.49;101192.42;2836183;84;21010;-69
2021/12/14 15:44:00;;;;;;;9.38;8.38;;;;;;;8.64;86.88;101195.41;2838119;84;21015;-66
2021/12/14 15:48:13;;;;;;;18.20;10.72;;;;;;;8.64;86.89;101197.23;2838490;84;21613;-67
2021/12/14 15:52:20;;;;;;;13.25;10.30;;;;;;;8.62;86.99;101199.95;2838269;84;21097;-67
2021/12/14 15:56:27;;;;;;;;;;;;;;;8.60;87.03;101197.88;2840899;84;21075;-67
2021/12/14 16:00:29;;;;;;;13.98;11.90;;;;;;;8.59;87.16;101196.17;2878365;82;20471;-69
2021/12/14 16:04:36;;;;;;;18.90;12.18;;;;;;;8.57;87.11;101194.08;2884341;82;21050;-67
2021/12/14 16:08:42;;;;;;;17.45;12.53;;;;;;;8.54;87.19;101192.45;2878646;82;20967;-68
2021/12/14 16:17:18;;;;;;;16.25;11.10;;;;;;;8.49;87.01;101193.17;2879052;82;21073;-68
2021/12/14 16:21:26;;;;;;;19.42;13.38;;;;;;;8.47;86.78;101188.92;2833542;84;20979;-67
2021/12/14 16:25:30;;;;;;;16.35;10.98;;;;;;;8.48;86.57;101184.00;2883276;82;21002;-67
2021/12/14 16:29:36;;;;;;;15.25;12.07;;;;;;;8.44;86.56;101190.78;2833425;83;21038;-69
2021/12/14 16:33:55;;;;;;;12.53;10.28;;;;;;;8.40;86.45;101187.09;2924010;81;21030;-70
2021/12/14 16:38:06;;;;;;;16.93;11.90;;;;;;;8.35;86.67;101201.06;2885505;82;21054;-69
2021/12/14 16:42:13;;;;;;;16.10;11.48;;;;;;;8.29;86.75;101211.09;2885590;82;21013;-68
2021/12/14 16:46:29;;;;;;;20.32;13.83;;;;;;;8.24;86.86;101209.64;2885423;82;21037;-68
2021/12/14 16:50:35;;;;;;;21.80;12.90;;;;;;;8.22;86.93;101213.72;2886309;81;21047;-68
2021/12/14 16:54:36;;;;;;;26.65;16.25;;;;;;;8.21;87.05;101214.66;2884819;82;21060;-70
2021/12/14 16:58:38;;;;;;;24.55;16.27;;;;;;;8.15;87.02;101214.99;2885053;82;21035;-70
2021/12/14 17:02:40;;;;;;;24.65;15.38;;;;;;;8.13;87.17;101219.08;2885672;82;21588;-68
2021/12/14 17:06:43;;;;;;;20.32;15.45;;;;;;;8.09;87.27;101226.82;2869797;81;20993;-69
2021/12/14 17:10:48;;;;;;;20.23;14.70;;;;;;;8.13;87.22;101236.76;2888866;82;21472;-70
2021/12/14 17:15:00;;;;;;;18.17;13.72;;;;;;;8.16;87.08;101237.94;2884148;82;21134;-71
2021/12/14 17:19:08;;;;;;;18.77;14.45;;;;;;;8.12;86.95;101229.29;2877689;82;21045;-68
2021/12/14 17:23:27;;;;;;;24.15;14.47;;;;;;;8.11;86.88;101223.61;2833480;84;21004;-67
2021/12/14 17:27:33;;;;;;;22.10;16.77;;;;;;;8.10;86.80;101219.25;2885159;82;20952;-69
2021/12/14 17:31:39;;;;;;;28.90;17.42;;;;;;;8.08;86.88;101221.14;2885194;82;21012;-66
2021/12/14 17:35:40;;;;;;;;;;;;;;;8.06;86.90;101224.34;2887253;81;21030;-70
2021/12/14 17:39:47;;;;;;;21.30;14.83;;;;;;;8.06;86.87;101225.67;2879346;82;20127;-68
2021/12/14 17:44:13;;;;;;;24.30;15.93;;;;;;;8.04;86.87;101234.16;2879277;82;20982;-67
2021/12/14 17:48:17;;;;;;;21.95;16.50;;;;;;;8.08;86.87;101234.84;2880074;82;21022;-65
2021/12/14 17:52:32;;;;;;;26.48;17.95;;;;;;;8.09;86.69;101238.75;2885575;82;21050;-66
2021/12/14 17:56:34;;;;;;;26.68;16.27;;;;;;;8.12;86.60;101247.84;2885864;82;21439;-70
2021/12/14 18:00:44;;;;;;;21.70;15.53;;;;;;;8.17;86.21;101242.30;2827985;84;21027;-67
2021/12/14 18:04:49;;;;;;;23.60;16.02;;;;;;;8.15;85.94;101245.02;2877270;82;21063;-67
2021/12/14 18:08:56;;;;;;;22.48;14.80;;;;;;;8.17;86.14;101248.05;2853598;83;20993;-65
2021/12/14 18:13:03;;;;;;;28.52;20.00;;;;;;;8.01;86.03;101256.85;2876747;82;21034;-66
2021/12/14 18:17:10;;;;;;;26.20;18.85;;;;;;;8.05;86.37;101261.52;2877001;82;21018;-69
2021/12/14 18:21:11;;;;;;;27.22;17.98;;;;;;;8.06;86.28;101262.77;2877083;82;21058;-67
2021/12/14 18:25:14;;;;;;;30.20;20.05;;;;;;;8.08;86.28;101258.23;2876890;82;20971;-67
2021/12/14 18:29:21;;;;;;;32.28;19.45;;;;;;;8.15;86.20;101263.56;2825775;84;20995;-69
2021/12/14 18:33:23;;;;;;;28.83;17.05;;;;;;;8.11;86.25;101263.36;2871224;82;21037;-67
2021/12/14 18:37:31;;;;;;;24.80;18.42;;;;;;;8.14;86.16;101268.48;2850644;82;21052;-67
2021/12/14 18:41:30;;;;;;;22.22;16.30;;;;;;;8.13;86.31;101276.05;2777614;84;21111;-68
2021/12/14 18:45:34;;;;;;;21.85;15.32;;;;;;;8.10;86.37;101272.25;2776811;85;21022;-67
2021/12/14 18:49:39;;;;;;;22.52;16.15;;;;;;;8.10;86.38;101270.06;2829762;84;21024;-69
2021/12/14 18:53:41;;;;;;;19.87;17.32;;;;;;;8.08;86.48;101280.77;2815344;84;21042;-67
2021/12/14 18:57:44;;;;;;;17.62;13.65;;;;;;;8.09;86.54;101281.15;2838827;84;21628;-68
2021/12/14 19:01:50;;;;;;;22.82;16.52;;;;;;;8.09;86.60;101277.17;2860951;82;21055;-70
2021/12/14 19:05:57;;;;;;;20.17;14.90;;;;;;;8.11;86.69;101281.05;2862887;83;21035;-69
2021/12/14 19:10:00;;;;;;;26.65;16.37;;;;;;;8.12;86.51;101280.97;2860438;83;20983;-68
2021/12/14 19:14:10;;;;;;;21.15;16.75;;;;;;;8.09;86.42;101279.82;2857710;83;20991;-68
2021/12/14 19:18:16;;;;;;;24.98;15.68;;;;;;;8.09;86.48;101282.47;2866874;82;21025;-67
2021/12/14 19:22:23;;;;;;;;;;;;;;;8.11;86.45;101293.84;2868156;83;21069;-69
2021/12/14 19:26:34;;;;;;;27.20;17.37;;;;;;;8.07;86.55;101298.06;2843436;82;20125;-66
2021/12/14 19:30:32;;;;;;;30.88;18.82;;;;;;;8.08;86.62;101296.66;2865307;83;20986;-68
2021/12/14 19:34:45;;;;;;;30.25;19.12;;;;;;;8.09;86.67;101298.37;2865384;83;21018;-69
2021/12/14 19:38:52;;;;;;;26.55;18.62;;;;;;;8.06;86.76;101290.59;2866830;83;21034;-67
2021/12/14 19:42:59;;;;;;;33.08;19.30;;;;;;;8.11;86.74;101291.19;2865592;81;21353;-70
2021/12/14 19:47:03;;;;;;;;;;;;;;;8.13;86.70;101285.78;2868257;83;21026;-67
2021/12/14 19:51:10;;;;;;;31.48;20.08;;;;;;;8.13;86.65;101291.09;2821526;84;20382;-69
2021/12/14 19:55:16;;;;;;;25.35;16.67;;;;;;;8.10;86.62;101297.43;2858780;83;21114;-65